createdAt,value
2018-12-11T00:01:08.559Z,3.20
2018-12-11T00:03:38.342Z,3.20
2018-12-11T00:06:07.365Z,3.20
2018-12-11T00:08:36.306Z,3.10
2018-12-11T00:11:05.819Z,3.00
2018-12-11T00:13:34.833Z,3.00
2018-12-11T00:16:03.909Z,3.00
2018-12-11T00:18:32.853Z,2.90
2018-12-11T00:21:01.786Z,2.90
2018-12-11T00:23:30.741Z,2.80
2018-12-11T00:25:59.718Z,2.80
2018-12-11T00:28:35.602Z,2.70
2018-12-11T00:31:04.751Z,2.70
2018-12-11T00:33:34.903Z,2.70
2018-12-11T00:36:04.886Z,2.70
2018-12-11T00:38:33.747Z,2.60
2018-12-11T00:41:04.494Z,2.60
2018-12-11T00:43:35.034Z,2.60
2018-12-11T00:46:04.282Z,2.60
2018-12-11T00:48:33.179Z,2.50
2018-12-11T00:51:02.207Z,2.40
2018-12-11T00:53:31.101Z,2.40
2018-12-11T00:56:00.113Z,2.30
2018-12-11T00:58:28.911Z,2.30
2018-12-11T01:00:58.286Z,2.30
2018-12-11T01:03:27.437Z,2.30
2018-12-11T01:05:56.226Z,2.20
2018-12-11T01:08:25.376Z,2.30
2018-12-11T01:10:54.845Z,2.30
2018-12-11T01:13:23.745Z,2.40
2018-12-11T01:15:52.538Z,2.50
2018-12-11T01:18:21.412Z,2.60
2018-12-11T01:20:50.404Z,2.60
2018-12-11T01:23:19.272Z,2.70
2018-12-11T01:25:48.198Z,2.70
2018-12-11T01:28:17.012Z,2.80
2018-12-11T01:30:45.804Z,2.80
2018-12-11T01:33:14.621Z,2.80
2018-12-11T01:35:43.588Z,2.80
2018-12-11T01:38:12.526Z,2.90
2018-12-11T01:40:41.388Z,2.90
2018-12-11T01:43:10.245Z,2.90
2018-12-11T01:45:39.376Z,2.80
2018-12-11T01:48:08.174Z,2.90
2018-12-11T01:50:36.974Z,2.90
2018-12-11T01:53:05.934Z,2.90
2018-12-11T01:55:35.073Z,3.00
2018-12-11T01:58:03.963Z,3.10
2018-12-11T02:00:32.854Z,3.10
2018-12-11T02:03:01.746Z,3.10
2018-12-11T02:05:30.545Z,3.20
2018-12-11T02:07:59.429Z,3.20
2018-12-11T02:10:29.268Z,3.10
2018-12-11T02:12:58.952Z,3.10
2018-12-11T02:15:27.877Z,3.10
2018-12-11T02:17:56.693Z,3.20
2018-12-11T02:20:25.523Z,3.20
2018-12-11T02:22:54.480Z,3.20
2018-12-11T02:25:23.371Z,3.20
2018-12-11T02:27:52.607Z,3.20
2018-12-11T02:30:21.401Z,3.20
2018-12-11T02:32:50.242Z,3.10
2018-12-11T02:35:19.258Z,3.10
2018-12-11T02:37:48.131Z,3.20
2018-12-11T02:40:17.259Z,3.10
2018-12-11T02:42:46.063Z,3.20
2018-12-11T02:45:15.022Z,3.20
2018-12-11T02:47:43.824Z,3.10
2018-12-11T02:50:12.716Z,3.10
2018-12-11T02:52:41.632Z,3.20
2018-12-11T02:55:11.806Z,3.30
2018-12-11T02:57:40.625Z,3.20
2018-12-11T03:00:09.857Z,3.10
2018-12-11T03:02:38.666Z,3.10
2018-12-11T03:05:08.146Z,3.10
2018-12-11T03:07:37.305Z,3.10
2018-12-11T03:10:06.425Z,3.10
2018-12-11T03:12:35.259Z,3.20
2018-12-11T03:15:04.350Z,3.20
2018-12-11T03:17:33.147Z,3.20
2018-12-11T03:20:01.965Z,3.30
2018-12-11T03:22:30.782Z,3.10
2018-12-11T03:24:59.579Z,3.10
2018-12-11T03:27:28.465Z,3.00
2018-12-11T03:29:57.276Z,3.00
2018-12-11T03:32:26.103Z,3.00
2018-12-11T03:34:54.901Z,3.10
2018-12-11T03:37:23.934Z,3.10
2018-12-11T03:39:52.734Z,3.10
2018-12-11T03:42:21.528Z,3.10
2018-12-11T03:44:50.433Z,3.10
2018-12-11T03:47:19.309Z,3.00
2018-12-11T03:49:48.111Z,3.00
2018-12-11T03:52:21.296Z,3.00
2018-12-11T03:54:48.066Z,3.00
2018-12-11T03:57:16.869Z,3.00
2018-12-11T03:59:45.757Z,3.00
2018-12-11T04:02:14.579Z,3.00
2018-12-11T04:04:43.380Z,3.00
2018-12-11T04:07:12.269Z,3.00
2018-12-11T04:09:41.328Z,3.00
2018-12-11T04:12:10.545Z,3.00
2018-12-11T04:14:39.555Z,3.00
2018-12-11T04:17:08.535Z,3.00
2018-12-11T04:19:37.338Z,3.10
2018-12-11T04:22:06.247Z,3.00
2018-12-11T04:24:35.038Z,3.00
2018-12-11T04:27:03.837Z,3.00
2018-12-11T04:29:32.827Z,2.90
2018-12-11T04:32:01.643Z,2.90
2018-12-11T04:34:30.529Z,2.90
2018-12-11T04:36:59.336Z,2.90
2018-12-11T04:39:33.950Z,2.90
2018-12-11T04:41:58.945Z,2.90
2018-12-11T04:44:27.832Z,2.90
2018-12-11T04:46:56.750Z,2.90
2018-12-11T04:49:25.665Z,2.90
2018-12-11T04:51:54.785Z,2.90
2018-12-11T04:54:23.577Z,2.80
2018-12-11T04:56:52.397Z,2.80
2018-12-11T04:59:21.289Z,2.80
2018-12-11T05:01:50.317Z,2.90
2018-12-11T05:04:19.126Z,2.80
2018-12-11T05:06:48.005Z,2.80
2018-12-11T05:09:17.121Z,2.80
2018-12-11T05:11:46.001Z,2.80
2018-12-11T05:14:14.838Z,2.80
2018-12-11T05:16:43.679Z,2.80
2018-12-11T05:19:12.561Z,2.80
2018-12-11T05:21:41.386Z,2.80
2018-12-11T05:24:10.205Z,2.80
2018-12-11T05:26:39.049Z,2.80
2018-12-11T05:29:07.881Z,2.90
2018-12-11T05:31:36.885Z,2.90
2018-12-11T05:34:05.707Z,3.00
2018-12-11T05:36:34.815Z,3.00
2018-12-11T05:39:05.629Z,3.10
2018-12-11T05:41:34.459Z,3.10
2018-12-11T05:44:03.274Z,3.10
2018-12-11T05:46:32.077Z,3.10
2018-12-11T05:49:00.922Z,3.10
2018-12-11T05:51:29.769Z,3.10
2018-12-11T05:53:58.581Z,3.10
2018-12-11T05:56:27.436Z,3.10
2018-12-11T05:58:56.257Z,3.10
2018-12-11T06:01:25.138Z,3.20
2018-12-11T06:03:54.120Z,3.30
2018-12-11T06:06:22.925Z,3.20
2018-12-11T06:08:51.787Z,3.20
2018-12-11T06:11:20.732Z,3.10
2018-12-11T06:13:49.626Z,3.30
2018-12-11T06:16:18.797Z,3.20
2018-12-11T06:18:47.887Z,3.20
2018-12-11T06:21:16.682Z,3.20
2018-12-11T06:23:45.485Z,3.20
2018-12-11T06:26:14.324Z,3.20
2018-12-11T06:28:43.128Z,3.20
2018-12-11T06:31:11.915Z,3.10
2018-12-11T06:33:41.005Z,3.00
2018-12-11T06:36:09.889Z,3.00
2018-12-11T06:38:39.118Z,3.10
2018-12-11T06:41:08.038Z,3.00
2018-12-11T06:43:36.836Z,3.00
2018-12-11T06:46:05.743Z,3.10
2018-12-11T06:48:34.914Z,3.10
2018-12-11T06:51:03.793Z,3.00
2018-12-11T06:53:32.590Z,3.00
2018-12-11T06:56:01.409Z,3.00
2018-12-11T06:58:30.559Z,3.00
2018-12-11T07:00:59.432Z,3.00
2018-12-11T07:03:28.233Z,3.00
2018-12-11T07:05:57.039Z,2.90
2018-12-11T07:08:25.865Z,2.90
2018-12-11T07:10:55.096Z,3.00
2018-12-11T07:13:23.903Z,3.00
2018-12-11T07:15:52.700Z,3.10
2018-12-11T07:18:25.936Z,3.00
2018-12-11T07:20:52.618Z,3.00
2018-12-11T07:23:21.405Z,3.00
2018-12-11T07:25:50.221Z,3.00
2018-12-11T07:28:19.065Z,2.90
2018-12-11T07:30:47.903Z,2.90
2018-12-11T07:33:16.686Z,2.90
2018-12-11T07:35:45.576Z,2.90
2018-12-11T07:38:14.397Z,2.80
2018-12-11T07:40:43.216Z,2.80
2018-12-11T07:43:12.413Z,2.80
2018-12-11T07:45:41.341Z,2.80
2018-12-11T07:48:10.130Z,2.80
2018-12-11T07:50:38.921Z,2.90
2018-12-11T07:53:08.094Z,2.90
2018-12-11T07:55:36.993Z,3.00
2018-12-11T07:58:05.786Z,3.00
2018-12-11T08:00:34.592Z,3.00
2018-12-11T08:03:03.473Z,2.90
2018-12-11T08:05:32.345Z,2.90
2018-12-11T08:08:01.141Z,2.90
2018-12-11T08:10:30.054Z,2.80
2018-12-11T08:12:58.853Z,2.80
2018-12-11T08:15:27.733Z,2.80
2018-12-11T08:17:56.533Z,2.80
2018-12-11T08:20:25.318Z,2.80
2018-12-11T08:22:54.181Z,2.90
2018-12-11T08:25:23.076Z,2.90
2018-12-11T08:27:51.961Z,3.00
2018-12-11T08:30:21.125Z,3.00
2018-12-11T08:32:50.005Z,2.90
2018-12-11T08:35:18.936Z,2.90
2018-12-11T08:37:47.766Z,2.90
2018-12-11T08:40:16.865Z,2.90
2018-12-11T08:42:45.711Z,2.90
2018-12-11T08:45:14.933Z,2.90
2018-12-11T08:47:43.786Z,2.90
2018-12-11T08:50:12.588Z,3.10
2018-12-11T08:52:41.436Z,3.00
2018-12-11T08:55:10.265Z,3.10
2018-12-11T08:57:39.157Z,3.00
2018-12-11T09:00:08.873Z,2.90
2018-12-11T09:02:37.793Z,2.90
2018-12-11T09:05:06.619Z,2.90
2018-12-11T09:07:35.576Z,2.90
2018-12-11T09:10:05.673Z,3.00
2018-12-11T09:12:34.604Z,2.80
2018-12-11T09:15:03.760Z,2.80
2018-12-11T09:17:32.561Z,2.80
2018-12-11T09:20:01.448Z,2.90
2018-12-11T09:22:30.273Z,2.80
2018-12-11T09:24:59.074Z,2.90
2018-12-11T09:27:27.901Z,3.00
2018-12-11T09:29:56.693Z,3.00
2018-12-11T09:32:25.517Z,3.10
2018-12-11T09:34:54.313Z,3.00
2018-12-11T09:37:23.133Z,3.00
2018-12-11T09:39:51.958Z,3.10
2018-12-11T09:42:20.769Z,3.10
2018-12-11T09:44:49.589Z,3.10
2018-12-11T09:47:18.422Z,3.20
2018-12-11T09:49:47.265Z,3.20
2018-12-11T09:52:16.066Z,3.20
2018-12-11T09:54:44.902Z,3.30
2018-12-11T09:57:13.721Z,3.30
2018-12-11T09:59:42.545Z,3.30
2018-12-11T10:02:11.358Z,3.30
2018-12-11T10:04:40.185Z,3.20
2018-12-11T10:07:08.989Z,3.20
2018-12-11T10:09:37.797Z,3.20
2018-12-11T10:12:06.673Z,3.30
2018-12-11T10:14:35.487Z,3.20
2018-12-11T10:17:04.289Z,3.30
2018-12-11T10:19:33.110Z,3.20
2018-12-11T10:22:02.012Z,3.10
2018-12-11T10:24:30.912Z,3.20
2018-12-11T10:26:59.709Z,3.20
2018-12-11T10:29:28.562Z,3.30
2018-12-11T10:31:57.346Z,3.30
2018-12-11T10:34:26.125Z,3.30
2018-12-11T10:36:54.947Z,3.40
2018-12-11T10:39:23.743Z,3.30
2018-12-11T10:41:52.564Z,3.40
2018-12-11T10:44:21.386Z,3.40
2018-12-11T10:46:50.193Z,3.40
2018-12-11T10:49:18.985Z,3.40
2018-12-11T10:51:47.802Z,3.40
2018-12-11T10:54:16.615Z,3.50
2018-12-11T10:56:45.629Z,3.50
2018-12-11T10:59:14.435Z,3.50
2018-12-11T11:01:47.334Z,3.50
2018-12-11T11:04:16.382Z,3.50
2018-12-11T11:06:45.209Z,3.40
2018-12-11T11:09:14.179Z,3.50
2018-12-11T11:11:43.071Z,3.40
2018-12-11T11:14:12.028Z,3.50
2018-12-11T11:16:40.962Z,3.60
2018-12-11T11:19:09.803Z,3.60
2018-12-11T11:21:38.593Z,3.60
2018-12-11T11:24:07.480Z,3.70
2018-12-11T11:26:36.356Z,3.70
2018-12-11T11:29:05.237Z,3.70
2018-12-11T11:31:34.022Z,3.80
2018-12-11T11:34:03.269Z,3.80
2018-12-11T11:36:32.058Z,3.90
2018-12-11T11:39:00.937Z,3.80
2018-12-11T11:41:29.829Z,3.80
2018-12-11T11:43:58.632Z,3.80
2018-12-11T11:46:27.448Z,3.80
2018-12-11T11:48:56.279Z,3.80
2018-12-11T11:51:25.094Z,3.80
2018-12-11T11:53:53.929Z,3.90
2018-12-11T11:56:22.737Z,3.90
2018-12-11T11:58:51.526Z,4.00
2018-12-11T12:01:20.429Z,4.00
2018-12-11T12:03:49.299Z,4.00
2018-12-11T12:06:18.329Z,3.90
2018-12-11T12:08:47.197Z,3.90
2018-12-11T12:11:15.968Z,3.90
2018-12-11T12:13:44.799Z,3.90
2018-12-11T12:16:13.621Z,3.90
2018-12-11T12:18:42.409Z,3.80
2018-12-11T12:21:11.223Z,3.80
2018-12-11T12:23:40.024Z,3.80
2018-12-11T12:26:08.829Z,3.80
2018-12-11T12:28:37.651Z,3.80
2018-12-11T12:31:06.944Z,3.80
2018-12-11T12:33:35.865Z,3.90
2018-12-11T12:36:04.713Z,3.90
2018-12-11T12:38:33.569Z,3.80
2018-12-11T12:41:02.393Z,3.90
2018-12-11T12:43:31.213Z,3.90
2018-12-11T12:46:00.018Z,3.90
2018-12-11T12:48:29.142Z,4.00
2018-12-11T12:50:57.948Z,4.00
2018-12-11T12:53:26.957Z,4.00
2018-12-11T12:55:55.785Z,4.00
2018-12-11T12:58:24.569Z,4.00
2018-12-11T13:00:53.951Z,4.00
2018-12-11T13:03:22.986Z,4.00
2018-12-11T13:05:51.871Z,4.00
2018-12-11T13:08:20.663Z,4.00
2018-12-11T13:10:49.656Z,4.10
2018-12-11T13:13:18.579Z,4.10
2018-12-11T13:15:47.395Z,4.00
2018-12-11T13:18:16.454Z,4.00
2018-12-11T13:20:45.442Z,4.10
2018-12-11T13:23:14.293Z,4.10
2018-12-11T13:25:43.126Z,4.00
2018-12-11T13:28:12.004Z,4.00
2018-12-11T13:30:40.849Z,4.00
2018-12-11T13:33:09.671Z,4.00
2018-12-11T13:35:38.610Z,4.00
2018-12-11T13:38:07.416Z,4.10
2018-12-11T13:40:36.481Z,4.10
2018-12-11T13:43:05.647Z,4.10
2018-12-11T13:45:34.558Z,4.10
2018-12-11T13:48:03.488Z,4.10
2018-12-11T13:50:32.348Z,4.10
2018-12-11T13:53:01.272Z,4.10
2018-12-11T13:55:30.065Z,4.10
2018-12-11T13:57:58.893Z,4.20
2018-12-11T14:00:27.674Z,4.20
2018-12-11T14:02:56.560Z,4.10
2018-12-11T14:05:25.411Z,4.10
2018-12-11T14:07:54.336Z,4.20
2018-12-11T14:10:23.185Z,4.10
2018-12-11T14:12:52.014Z,4.00
2018-12-11T14:15:21.283Z,4.00
2018-12-11T14:17:50.089Z,4.00
2018-12-11T14:20:18.989Z,4.00
2018-12-11T14:22:47.875Z,4.00
2018-12-11T14:25:16.836Z,3.90
2018-12-11T14:27:45.785Z,4.00
2018-12-11T14:30:14.702Z,4.00
2018-12-11T14:32:43.575Z,4.00
2018-12-11T14:35:12.597Z,4.10
2018-12-11T14:37:41.432Z,4.00
2018-12-11T14:40:10.411Z,3.90
2018-12-11T14:42:39.326Z,3.90
2018-12-11T14:45:08.525Z,3.90
2018-12-11T14:47:37.314Z,3.80
2018-12-11T14:50:07.887Z,3.90
2018-12-11T14:52:36.789Z,3.90
2018-12-11T14:55:05.876Z,3.90
2018-12-11T14:57:34.749Z,3.90
2018-12-11T15:00:03.997Z,3.90
2018-12-11T15:02:32.824Z,3.90
2018-12-11T15:05:02.022Z,3.80
2018-12-11T15:07:30.899Z,3.80
2018-12-11T15:10:00.078Z,3.80
2018-12-11T15:12:28.877Z,3.80
2018-12-11T15:14:57.773Z,3.80
2018-12-11T15:17:26.726Z,3.70
2018-12-11T15:19:55.560Z,3.60
2018-12-11T15:22:24.362Z,3.70
2018-12-11T15:24:53.201Z,3.70
2018-12-11T15:27:22.045Z,3.70
2018-12-11T15:29:50.986Z,3.70
2018-12-11T15:32:19.801Z,3.70
2018-12-11T15:34:48.676Z,3.70
2018-12-11T15:37:17.489Z,3.60
2018-12-11T15:39:46.388Z,3.70
2018-12-11T15:42:15.281Z,3.60
2018-12-11T15:44:44.583Z,3.60
2018-12-11T15:47:13.479Z,3.60
2018-12-11T15:49:42.303Z,3.50
2018-12-11T15:52:11.161Z,3.50
2018-12-11T15:54:39.986Z,3.50
2018-12-11T15:57:08.812Z,3.50
2018-12-11T15:59:37.658Z,3.50
2018-12-11T16:02:06.574Z,3.30
2018-12-11T16:04:35.402Z,3.30
2018-12-11T16:07:04.495Z,3.30
2018-12-11T16:09:36.423Z,3.30
2018-12-11T16:12:05.983Z,3.20
2018-12-11T16:14:35.272Z,3.20
2018-12-11T16:17:04.413Z,3.10
2018-12-11T16:19:33.301Z,3.10
2018-12-11T16:22:02.147Z,3.10
2018-12-11T16:24:30.997Z,3.20
2018-12-11T16:26:59.837Z,3.30
2018-12-11T16:29:28.657Z,3.20
2018-12-11T16:31:57.484Z,3.30
2018-12-11T16:34:26.327Z,3.30
2018-12-11T16:36:55.130Z,3.20
2018-12-11T16:39:23.942Z,3.20
2018-12-11T16:41:52.863Z,3.40
2018-12-11T16:44:21.797Z,3.40
2018-12-11T16:46:50.785Z,3.40
2018-12-11T16:49:19.654Z,3.50
2018-12-11T16:51:48.668Z,3.50
2018-12-11T16:54:17.441Z,3.40
2018-12-11T16:56:46.382Z,3.20
2018-12-11T16:59:15.278Z,3.30
2018-12-11T17:01:44.085Z,3.30
2018-12-11T17:04:12.910Z,3.30
2018-12-11T17:06:41.764Z,3.30
2018-12-11T17:09:14.317Z,3.30
2018-12-11T17:11:43.185Z,3.30
2018-12-11T17:14:12.085Z,3.30
2018-12-11T17:16:41.017Z,3.20
2018-12-11T17:19:09.838Z,3.20
2018-12-11T17:21:38.661Z,3.10
2018-12-11T17:24:07.497Z,3.10
2018-12-11T17:26:36.333Z,3.10
2018-12-11T17:29:05.164Z,3.10
2018-12-11T17:31:34.102Z,3.20
2018-12-11T17:34:03.009Z,3.10
2018-12-11T17:36:31.797Z,3.10
2018-12-11T17:39:00.659Z,3.10
2018-12-11T17:41:29.436Z,3.20
2018-12-11T17:43:58.413Z,3.30
2018-12-11T17:46:27.331Z,3.30
2018-12-11T17:48:56.162Z,3.30
2018-12-11T17:51:24.967Z,3.20
2018-12-11T17:53:53.777Z,3.30
2018-12-11T17:56:22.607Z,3.30
2018-12-11T17:58:51.600Z,3.30
2018-12-11T18:01:22.253Z,3.40
2018-12-11T18:03:51.462Z,3.40
2018-12-11T18:06:20.303Z,3.40
2018-12-11T18:08:49.214Z,3.40
2018-12-11T18:11:18.028Z,3.40
2018-12-11T18:13:46.870Z,3.40
2018-12-11T18:16:15.717Z,3.30
2018-12-11T18:18:44.490Z,3.40
2018-12-11T18:21:13.540Z,3.50
2018-12-11T18:23:42.345Z,3.40
2018-12-11T18:26:12.118Z,3.40
2018-12-11T18:28:40.966Z,3.40
2018-12-11T18:31:10.113Z,3.20
2018-12-11T18:33:39.034Z,3.30
2018-12-11T18:36:08.013Z,3.20
2018-12-11T18:38:37.018Z,3.30
2018-12-11T18:41:06.016Z,3.40
2018-12-11T18:43:34.833Z,3.30
2018-12-11T18:46:03.769Z,3.30
2018-12-11T18:48:32.590Z,3.30
2018-12-11T18:51:01.433Z,3.40
2018-12-11T18:53:30.238Z,3.40
2018-12-11T18:55:59.358Z,3.40
2018-12-11T18:58:34.126Z,3.50
2018-12-11T19:00:59.060Z,3.40
2018-12-11T19:03:27.898Z,3.30
2018-12-11T19:05:56.726Z,3.30
2018-12-11T19:08:25.651Z,3.30
2018-12-11T19:10:54.534Z,3.20
2018-12-11T19:13:23.354Z,3.20
2018-12-11T19:15:52.529Z,3.30
2018-12-11T19:18:21.388Z,3.30
2018-12-11T19:20:50.476Z,3.30
2018-12-11T19:23:28.352Z,3.30
2018-12-11T19:25:57.228Z,3.40
2018-12-11T19:28:26.049Z,3.30
2018-12-11T19:30:54.855Z,3.40
2018-12-11T19:35:57.969Z,3.40
2018-12-11T19:38:26.928Z,3.40
2018-12-11T19:40:55.725Z,3.30
2018-12-11T19:43:24.633Z,3.30
2018-12-11T19:45:53.532Z,3.30
2018-12-11T19:48:22.371Z,3.40
2018-12-11T19:50:51.521Z,3.40
2018-12-11T19:53:20.424Z,3.40
2018-12-11T19:55:49.397Z,3.20
2018-12-11T19:58:18.388Z,3.30
2018-12-11T20:00:47.271Z,3.30
2018-12-11T20:03:16.215Z,3.20
2018-12-11T20:05:45.074Z,3.30
2018-12-11T20:08:13.920Z,3.30
2018-12-11T20:10:42.757Z,3.30
2018-12-11T20:13:11.658Z,3.30
2018-12-11T20:15:40.458Z,3.40
2018-12-11T20:18:12.861Z,3.40
2018-12-11T20:20:40.292Z,3.40
2018-12-11T20:23:09.211Z,3.30
2018-12-11T20:25:40.072Z,3.30
2018-12-11T20:28:09.058Z,3.30
2018-12-11T20:30:38.093Z,3.30
2018-12-11T20:33:06.949Z,3.30
2018-12-11T20:35:35.848Z,3.30
2018-12-11T20:38:04.908Z,3.30
2018-12-11T20:40:33.749Z,3.30
2018-12-11T20:43:02.757Z,3.30
2018-12-11T20:45:31.660Z,3.30
2018-12-11T20:48:00.540Z,3.40
2018-12-11T20:50:29.442Z,3.40
2018-12-11T20:52:58.479Z,3.40
2018-12-11T20:55:27.340Z,3.20
2018-12-11T20:57:56.225Z,3.20
2018-12-11T21:00:25.109Z,3.30
2018-12-11T21:02:53.985Z,3.20
2018-12-11T21:05:22.900Z,3.00
2018-12-11T21:07:51.733Z,3.00
2018-12-11T21:10:20.628Z,2.80
2018-12-11T21:12:49.537Z,2.70
2018-12-11T21:15:18.388Z,2.70
2018-12-11T21:17:47.329Z,2.70
2018-12-11T21:20:16.176Z,2.40
2018-12-11T21:22:45.038Z,2.30
2018-12-11T21:25:14.041Z,2.30
2018-12-11T21:27:42.945Z,2.20
2018-12-11T21:30:12.043Z,2.20
2018-12-11T21:32:40.881Z,2.10
2018-12-11T21:35:09.913Z,2.10
2018-12-11T21:37:38.742Z,2.00
2018-12-11T21:40:07.780Z,2.10
2018-12-11T21:42:36.649Z,2.10
2018-12-11T21:45:06.592Z,2.10
2018-12-11T21:47:35.389Z,2.10
2018-12-11T21:50:05.673Z,2.10
2018-12-11T21:52:34.503Z,2.20
2018-12-11T21:55:03.764Z,2.20
2018-12-11T21:57:33.942Z,2.10
2018-12-11T22:00:03.631Z,2.20
2018-12-11T22:02:32.641Z,2.20
2018-12-11T22:05:01.553Z,2.30
2018-12-11T22:07:30.405Z,2.20
2018-12-11T22:09:59.346Z,2.20
2018-12-11T22:12:29.187Z,2.20
2018-12-11T22:14:58.286Z,2.30
2018-12-11T22:17:27.184Z,2.30
2018-12-11T22:19:56.019Z,2.40
2018-12-11T22:22:24.929Z,2.40
2018-12-11T22:24:53.793Z,2.40
2018-12-11T22:27:23.109Z,2.40
2018-12-11T22:29:51.969Z,2.40
2018-12-11T22:32:20.865Z,2.40
2018-12-11T22:34:49.692Z,2.40
2018-12-11T22:37:18.529Z,2.40
2018-12-11T22:39:47.345Z,2.40
2018-12-11T22:42:16.309Z,2.40
2018-12-11T22:44:45.168Z,2.40
2018-12-11T22:47:13.998Z,2.20
2018-12-11T22:49:42.985Z,2.00
2018-12-11T22:52:11.880Z,1.90
2018-12-11T22:54:40.981Z,1.90
2018-12-11T22:57:09.817Z,1.80
2018-12-11T22:59:38.625Z,1.70
2018-12-11T23:02:07.461Z,1.60
2018-12-11T23:04:36.354Z,1.70
2018-12-11T23:07:05.253Z,1.70
2018-12-11T23:09:34.150Z,1.70
2018-12-11T23:12:03.150Z,1.70
2018-12-11T23:14:32.142Z,1.80
2018-12-11T23:17:01.001Z,1.80
2018-12-11T23:19:29.800Z,1.80
2018-12-11T23:21:58.694Z,1.80
2018-12-11T23:24:27.714Z,1.80
2018-12-11T23:26:56.542Z,1.90
2018-12-11T23:29:25.318Z,1.90
2018-12-11T23:31:54.177Z,1.90
2018-12-11T23:34:23.038Z,1.90
2018-12-11T23:36:52.062Z,2.10
2018-12-11T23:39:20.934Z,2.10
2018-12-11T23:41:49.869Z,2.10
2018-12-11T23:44:18.681Z,2.10
2018-12-11T23:46:47.517Z,2.00
2018-12-11T23:49:16.394Z,2.10
2018-12-11T23:51:45.224Z,2.10
2018-12-11T23:54:14.054Z,2.20
2018-12-11T23:56:44.129Z,2.20
2018-12-11T23:59:12.925Z,2.10
